createdAt,value
2019-05-20T00:00:22.287Z,94021.91
2019-05-20T00:02:51.786Z,94009.23
2019-05-20T00:05:21.252Z,94022.52
2019-05-20T00:07:50.733Z,94023.57
2019-05-20T00:10:20.259Z,94008.45
2019-05-20T00:12:49.729Z,94023.56
2019-05-20T00:15:19.236Z,94032.02
2019-05-20T00:17:50.370Z,94026.05
2019-05-20T00:20:19.881Z,94027.86
2019-05-20T00:22:49.333Z,94033.92
2019-05-20T00:25:18.822Z,94022.53
2019-05-20T00:27:48.326Z,94037.66
2019-05-20T00:30:18.104Z,94040.31
2019-05-20T00:32:47.562Z,94027.05
2019-05-20T00:35:17.062Z,94043.45
2019-05-20T00:37:46.569Z,94048.45
2019-05-20T00:40:16.746Z,94041.23
2019-05-20T00:42:46.221Z,94039.63
2019-05-20T00:45:15.748Z,94039.13
2019-05-20T00:47:45.203Z,94043.38
2019-05-20T00:50:15.069Z,94044.97
2019-05-20T00:52:44.525Z,94036.46
2019-05-20T00:55:26.189Z,94043.88
2019-05-20T00:57:55.694Z,94051.59
2019-05-20T01:00:25.638Z,94046.27
2019-05-20T01:02:57.262Z,94058.91
2019-05-20T01:05:26.373Z,94067.36
2019-05-20T01:07:55.872Z,94056.50
2019-05-20T01:10:26.780Z,94059.16
2019-05-20T01:12:56.306Z,94073.79
2019-05-20T01:15:26.030Z,94065.30
2019-05-20T01:17:55.478Z,94070.30
2019-05-20T01:20:24.969Z,94060.48
2019-05-20T01:22:54.416Z,94062.08
2019-05-20T01:25:23.911Z,94066.84
2019-05-20T01:27:53.426Z,94073.79
2019-05-20T01:30:22.940Z,94066.40
2019-05-20T01:32:52.381Z,94078.48
2019-05-20T01:35:21.889Z,94072.38
2019-05-20T01:37:51.404Z,94072.47
2019-05-20T01:40:20.875Z,94065.59
2019-05-20T01:42:50.342Z,94067.19
2019-05-20T01:45:19.853Z,94063.17
2019-05-20T01:47:49.292Z,94058.55
2019-05-20T01:50:18.747Z,94060.17
2019-05-20T01:52:48.205Z,94069.19
2019-05-20T01:55:17.712Z,94075.03
2019-05-20T01:57:47.171Z,94071.04
2019-05-20T02:00:16.852Z,94068.89
2019-05-20T02:02:46.365Z,94067.81
2019-05-20T02:05:15.978Z,94066.77
2019-05-20T02:07:45.463Z,94068.09
2019-05-20T02:10:15.336Z,94062.58
2019-05-20T02:12:44.828Z,94061.80
2019-05-20T02:15:24.312Z,94060.75
2019-05-20T02:17:53.770Z,94057.11
2019-05-20T02:20:23.251Z,94052.12
2019-05-20T02:22:54.965Z,94054.93
2019-05-20T02:25:24.451Z,94062.87
2019-05-20T02:27:53.938Z,94055.19
2019-05-20T02:30:23.426Z,94061.28
2019-05-20T02:32:52.879Z,94059.95
2019-05-20T02:35:22.389Z,94059.91
2019-05-20T02:37:51.906Z,94058.28
2019-05-20T02:40:21.705Z,94062.67
2019-05-20T02:42:51.151Z,94071.07
2019-05-20T02:45:20.874Z,94072.86
2019-05-20T02:47:50.300Z,94064.40
2019-05-20T02:50:19.776Z,94055.94
2019-05-20T02:52:49.250Z,94057.81
2019-05-20T02:55:18.771Z,94064.52
2019-05-20T02:57:48.304Z,94069.55
2019-05-20T03:00:18.030Z,94071.63
2019-05-20T03:02:47.512Z,94074.48
2019-05-20T03:05:17.062Z,94075.38
2019-05-20T03:07:46.613Z,94074.82
2019-05-20T03:10:16.222Z,94078.20
2019-05-20T03:12:45.701Z,94084.73
2019-05-20T03:15:15.464Z,94083.30
2019-05-20T03:17:45.016Z,94082.51
2019-05-20T03:20:14.571Z,94089.95
2019-05-20T03:22:44.044Z,94084.20
2019-05-20T03:25:15.188Z,94085.77
2019-05-20T03:27:44.803Z,94087.86
2019-05-20T03:30:14.643Z,94087.03
2019-05-20T03:32:44.071Z,94083.06
2019-05-20T03:35:15.017Z,94084.08
2019-05-20T03:37:44.555Z,94082.75
2019-05-20T03:40:14.122Z,94085.15
2019-05-20T03:42:43.601Z,94096.80
2019-05-20T03:45:14.123Z,94092.84
2019-05-20T03:47:43.633Z,94092.59
2019-05-20T03:50:13.193Z,94103.94
2019-05-20T03:52:42.677Z,94108.73
2019-05-20T03:55:12.689Z,94108.77
2019-05-20T03:57:42.186Z,94116.49
2019-05-20T04:00:11.891Z,94119.20
2019-05-20T04:02:41.328Z,94128.70
2019-05-20T04:05:10.939Z,94129.05
2019-05-20T04:07:40.521Z,94129.94
2019-05-20T04:10:10.308Z,94127.16
2019-05-20T04:12:39.816Z,94125.59
2019-05-20T04:15:09.774Z,94119.91
2019-05-20T04:17:39.295Z,94122.63
2019-05-20T04:20:08.974Z,94126.40
2019-05-20T04:22:38.459Z,94124.34
2019-05-20T04:25:07.990Z,94125.22
2019-05-20T04:27:37.500Z,94121.02
2019-05-20T04:30:07.230Z,94121.86
2019-05-20T04:32:36.701Z,94125.06
2019-05-20T04:35:21.540Z,94124.31
2019-05-20T04:37:37.597Z,94127.53
2019-05-20T04:40:07.685Z,94124.40
2019-05-20T04:42:37.143Z,94123.67
2019-05-20T04:45:07.366Z,94123.98
2019-05-20T04:47:36.889Z,94126.13
2019-05-20T04:50:06.920Z,94132.20
2019-05-20T04:52:36.391Z,94133.55
2019-05-20T04:55:05.999Z,94122.41
2019-05-20T04:57:35.511Z,94122.17
2019-05-20T05:00:06.170Z,94116.08
2019-05-20T05:02:35.614Z,94112.88
2019-05-20T05:05:05.558Z,94120.59
2019-05-20T05:07:35.094Z,94120.87
2019-05-20T05:10:05.106Z,94123.28
2019-05-20T05:12:34.576Z,94123.55
2019-05-20T05:15:07.755Z,94125.67
2019-05-20T05:17:35.732Z,94122.22
2019-05-20T05:20:05.380Z,94123.53
2019-05-20T05:22:34.865Z,94120.34
2019-05-20T05:25:04.895Z,94118.76
2019-05-20T05:27:34.396Z,94120.36
2019-05-20T05:30:03.972Z,94124.08
2019-05-20T05:32:43.473Z,94114.53
2019-05-20T05:35:16.044Z,94116.13
2019-05-20T05:37:45.613Z,94116.13
2019-05-20T05:40:15.788Z,94125.41
2019-05-20T05:42:45.234Z,94126.72
2019-05-20T05:45:15.075Z,94125.91
2019-05-20T05:47:44.552Z,94129.60
2019-05-20T05:50:14.324Z,94126.15
2019-05-20T05:52:43.766Z,94126.41
2019-05-20T05:55:13.622Z,94122.94
2019-05-20T05:57:43.385Z,94123.14
2019-05-20T06:00:12.976Z,94122.83
2019-05-20T06:02:42.814Z,94126.69
2019-05-20T06:05:12.907Z,94143.71
2019-05-20T06:07:42.364Z,94146.11
2019-05-20T06:10:12.053Z,94146.28
2019-05-20T06:12:41.527Z,94142.14
2019-05-20T06:15:11.571Z,94137.86
2019-05-20T06:17:41.050Z,94135.93
2019-05-20T06:20:10.902Z,94142.59
2019-05-20T06:22:40.411Z,94146.52
2019-05-20T06:25:10.213Z,94147.72
2019-05-20T06:27:39.697Z,94138.55
2019-05-20T06:30:10.244Z,94138.28
2019-05-20T06:32:39.715Z,94136.02
2019-05-20T06:35:11.128Z,94129.16
2019-05-20T06:37:43.876Z,94132.67
2019-05-20T06:40:14.176Z,94133.69
2019-05-20T06:42:43.617Z,94131.41
2019-05-20T06:45:14.684Z,94137.94
2019-05-20T06:47:44.188Z,94138.27
2019-05-20T06:50:14.009Z,94127.27
2019-05-20T06:52:43.462Z,94130.89
2019-05-20T06:55:13.026Z,94132.16
2019-05-20T06:57:42.508Z,94135.18
2019-05-20T07:00:12.682Z,94136.20
2019-05-20T07:02:42.158Z,94141.41
2019-05-20T07:05:12.021Z,94144.48
2019-05-20T07:07:41.474Z,94148.52
2019-05-20T07:10:11.358Z,94153.39
2019-05-20T07:12:41.976Z,94153.34
2019-05-20T07:15:11.831Z,94144.64
2019-05-20T07:17:41.308Z,94147.00
2019-05-20T07:20:11.208Z,94143.86
2019-05-20T07:22:55.301Z,94142.02
2019-05-20T07:25:12.167Z,94136.16
2019-05-20T07:27:41.681Z,94137.23
2019-05-20T07:30:15.178Z,94138.02
2019-05-20T07:32:42.934Z,94137.27
2019-05-20T07:35:28.683Z,94146.50
2019-05-20T07:37:43.615Z,94141.05
2019-05-20T07:40:14.013Z,94135.09
2019-05-20T07:42:48.601Z,94137.69
2019-05-20T07:45:18.101Z,94142.52
2019-05-20T07:47:47.889Z,94142.88
2019-05-20T07:50:18.362Z,94145.74
2019-05-20T07:52:48.226Z,94148.09
2019-05-20T07:55:17.760Z,94148.59
2019-05-20T07:57:50.005Z,94150.72
2019-05-20T08:00:19.687Z,94150.41
2019-05-20T08:02:49.265Z,94148.06
2019-05-20T08:05:18.813Z,94148.26
2019-05-20T08:07:52.258Z,94151.34
2019-05-20T08:10:26.124Z,94152.92
2019-05-20T08:12:55.594Z,94150.44
2019-05-20T08:15:38.520Z,94147.61
2019-05-20T08:18:05.446Z,94144.86
2019-05-20T08:20:34.980Z,94137.48
2019-05-20T08:23:04.468Z,94142.94
2019-05-20T08:25:33.957Z,94140.51
2019-05-20T08:28:03.519Z,94144.38
2019-05-20T08:30:35.640Z,94150.23
2019-05-20T08:33:05.575Z,94156.63
2019-05-20T08:35:35.133Z,94161.95
2019-05-20T08:38:09.622Z,94153.88
2019-05-20T08:40:39.179Z,94153.90
2019-05-20T08:43:08.740Z,94152.08
2019-05-20T08:45:41.903Z,94146.02
2019-05-20T08:48:13.696Z,94147.06
2019-05-20T08:50:43.176Z,94147.28
2019-05-20T08:53:12.690Z,94145.74
2019-05-20T08:55:42.140Z,94149.07
2019-05-20T08:58:11.612Z,94139.15
2019-05-20T09:00:41.069Z,94140.47
2019-05-20T09:03:10.549Z,94141.75
2019-05-20T09:05:40.063Z,94144.95
2019-05-20T09:08:09.553Z,94141.04
2019-05-20T09:10:39.768Z,94138.98
2019-05-20T09:13:09.404Z,94140.42
2019-05-20T09:15:38.825Z,94142.44
2019-05-20T09:18:08.587Z,94147.66
2019-05-20T09:20:38.076Z,94141.94
2019-05-20T09:23:07.529Z,94146.46
2019-05-20T09:25:36.975Z,94143.83
2019-05-20T09:28:06.484Z,94146.79
2019-05-20T09:30:35.988Z,94136.38
2019-05-20T09:33:05.929Z,94135.44
2019-05-20T09:35:35.408Z,94124.60
2019-05-20T09:38:17.638Z,94119.09
2019-05-20T09:40:44.582Z,94125.64
2019-05-20T09:43:14.065Z,94122.23
2019-05-20T09:45:43.552Z,94121.33
2019-05-20T09:48:14.758Z,94119.59
2019-05-20T09:50:44.304Z,94117.84
2019-05-20T09:53:13.812Z,94116.05
2019-05-20T09:55:43.280Z,94107.08
2019-05-20T09:58:12.742Z,94099.99
2019-05-20T10:00:42.257Z,94102.11
2019-05-20T10:03:11.794Z,94101.71
2019-05-20T10:05:41.290Z,94108.89
2019-05-20T10:08:10.787Z,94111.34
2019-05-20T10:10:40.280Z,94108.72
2019-05-20T10:13:09.999Z,94105.88
2019-05-20T10:15:39.497Z,94099.59
2019-05-20T10:18:08.980Z,94105.27
2019-05-20T10:20:45.546Z,94096.04
2019-05-20T10:23:16.012Z,94097.92
2019-05-20T10:25:45.585Z,94091.05
2019-05-20T10:28:15.101Z,94096.44
2019-05-20T10:30:44.623Z,94094.30
2019-05-20T10:33:14.083Z,94093.76
2019-05-20T10:35:43.527Z,94088.72
2019-05-20T10:38:13.016Z,94097.81
2019-05-20T10:40:42.711Z,94136.02
2019-05-20T10:43:12.164Z,94130.67
2019-05-20T10:45:41.638Z,94147.45
2019-05-20T10:48:11.106Z,94168.08
2019-05-20T10:50:40.617Z,94166.55
2019-05-20T10:53:10.166Z,94153.27
2019-05-20T10:55:39.628Z,94152.44
2019-05-20T10:58:09.123Z,94144.20
2019-05-20T11:00:38.627Z,94136.77
2019-05-20T11:03:08.141Z,94135.67
2019-05-20T11:05:37.597Z,94132.21
2019-05-20T11:08:07.129Z,94140.98
2019-05-20T11:10:36.728Z,94140.75
2019-05-20T11:13:06.206Z,94153.81
2019-05-20T11:15:35.711Z,94161.27
2019-05-20T11:18:05.236Z,94142.66
2019-05-20T11:20:34.729Z,94138.98
2019-05-20T11:23:04.257Z,94137.91
2019-05-20T11:25:33.880Z,94135.78
2019-05-20T11:28:03.331Z,94133.38
2019-05-20T11:30:32.888Z,94139.17
2019-05-20T11:33:02.514Z,94139.16
2019-05-20T11:35:31.997Z,94142.61
2019-05-20T11:38:01.501Z,94141.28
2019-05-20T11:40:30.964Z,94150.86
2019-05-20T11:43:00.487Z,94144.48
2019-05-20T11:45:29.974Z,94141.81
2019-05-20T11:47:59.545Z,94131.95
2019-05-20T11:50:28.998Z,94134.84
2019-05-20T11:52:58.753Z,94132.94
2019-05-20T11:55:28.262Z,94114.27
2019-05-20T11:58:12.843Z,94122.47
2019-05-20T12:00:29.038Z,94121.11
2019-05-20T12:02:58.547Z,94130.41
2019-05-20T12:05:28.047Z,94134.72
2019-05-20T12:07:57.507Z,94130.46
2019-05-20T12:10:27.014Z,94132.64
2019-05-20T12:12:56.500Z,94134.84
2019-05-20T12:15:25.933Z,94133.28
2019-05-20T12:17:55.412Z,94144.71
2019-05-20T12:20:24.856Z,94149.00
2019-05-20T12:22:54.425Z,94163.09
2019-05-20T12:25:23.900Z,94172.90
2019-05-20T12:27:53.359Z,94179.28
2019-05-20T12:30:23.034Z,94194.16
2019-05-20T12:33:15.561Z,94206.70
2019-05-20T12:35:23.755Z,94198.19
2019-05-20T12:37:53.223Z,94221.05
2019-05-20T12:40:22.905Z,94222.38
2019-05-20T12:42:52.390Z,94209.91
2019-05-20T12:45:21.871Z,94200.84
2019-05-20T12:47:51.343Z,94201.88
2019-05-20T12:50:20.972Z,94187.38
2019-05-20T12:52:50.488Z,94186.25
2019-05-20T12:55:20.149Z,94186.20
2019-05-20T12:57:49.612Z,94181.25
2019-05-20T13:00:19.629Z,94208.57
2019-05-20T13:02:49.117Z,94219.02
2019-05-20T13:05:20.097Z,94211.25
2019-05-20T13:07:49.562Z,94228.73
2019-05-20T13:10:31.404Z,94220.41
2019-05-20T13:12:50.495Z,94214.87
2019-05-20T13:15:20.084Z,94215.57
2019-05-20T13:17:49.541Z,94218.63
2019-05-20T13:20:19.017Z,94225.09
2019-05-20T13:22:48.637Z,94240.53
2019-05-20T13:25:18.109Z,94271.16
2019-05-20T13:27:47.617Z,94281.09
2019-05-20T13:30:20.673Z,94280.18
2019-05-20T13:32:50.178Z,94279.00
2019-05-20T13:35:19.868Z,94274.88
2019-05-20T13:37:49.343Z,94273.36
2019-05-20T13:40:19.441Z,94265.47
2019-05-20T13:42:48.941Z,94269.01
2019-05-20T13:45:19.049Z,94269.87
2019-05-20T13:47:48.594Z,94263.81
2019-05-20T13:50:18.594Z,94262.25
2019-05-20T13:52:48.056Z,94260.12
2019-05-20T13:55:17.535Z,94247.88
2019-05-20T13:57:47.055Z,94258.50
2019-05-20T14:00:18.114Z,94259.31
2019-05-20T14:02:47.637Z,94255.59
2019-05-20T14:05:17.490Z,94246.82
2019-05-20T14:07:46.924Z,94235.95
2019-05-20T14:10:16.605Z,94244.99
2019-05-20T14:12:46.150Z,94237.78
2019-05-20T14:15:15.644Z,94238.87
2019-05-20T14:17:45.212Z,94240.95
2019-05-20T14:20:14.814Z,94240.70
2019-05-20T14:22:44.337Z,94244.93
2019-05-20T14:25:14.029Z,94252.67
2019-05-20T14:27:43.477Z,94252.14
2019-05-20T14:30:13.226Z,94258.27
2019-05-20T14:32:42.747Z,94256.66
2019-05-20T14:35:12.778Z,94257.72
2019-05-20T14:37:42.239Z,94256.13
2019-05-20T14:40:12.035Z,94258.27
2019-05-20T14:42:41.556Z,94260.10
2019-05-20T14:45:11.255Z,94273.91
2019-05-20T14:47:40.759Z,94276.58
2019-05-20T14:50:10.529Z,94291.42
2019-05-20T14:52:40.021Z,94279.72
2019-05-20T14:55:09.826Z,94295.24
2019-05-20T14:57:39.355Z,94297.02
2019-05-20T15:00:09.829Z,94297.48
2019-05-20T15:02:39.314Z,94309.30
2019-05-20T15:05:09.041Z,94304.98
2019-05-20T15:07:38.639Z,94296.91
2019-05-20T15:10:10.114Z,94288.58
2019-05-20T15:12:39.638Z,94287.44
2019-05-20T15:15:09.847Z,94288.76
2019-05-20T15:17:39.271Z,94284.16
2019-05-20T15:20:09.277Z,94276.75
2019-05-20T15:22:38.761Z,94275.33
2019-05-20T15:25:08.609Z,94270.64
2019-05-20T15:27:38.079Z,94279.70
2019-05-20T15:30:08.347Z,94271.83
2019-05-20T15:32:37.990Z,94282.48
2019-05-20T15:35:07.606Z,94276.67
2019-05-20T15:37:37.096Z,94280.70
2019-05-20T15:40:06.919Z,94284.95
2019-05-20T15:42:36.414Z,94285.96
2019-05-20T15:45:07.202Z,94288.44
2019-05-20T15:47:36.734Z,94280.77
2019-05-20T15:50:10.026Z,94286.92
2019-05-20T15:52:38.716Z,94282.72
2019-05-20T15:55:08.247Z,94294.52
2019-05-20T15:57:37.756Z,94290.51
2019-05-20T16:00:07.630Z,94287.59
2019-05-20T16:02:37.192Z,94284.66
2019-05-20T16:05:06.934Z,94282.30
2019-05-20T16:07:36.422Z,94276.47
2019-05-20T16:10:06.489Z,94276.98
2019-05-20T16:12:36.013Z,94272.17
2019-05-20T16:15:06.228Z,94272.94
2019-05-20T16:17:35.708Z,94269.76
2019-05-20T16:20:07.084Z,94270.09
2019-05-20T16:22:36.918Z,94269.78
2019-05-20T16:25:08.684Z,94260.00
2019-05-20T16:27:38.165Z,94267.18
2019-05-20T16:30:08.109Z,94270.83
2019-05-20T16:32:37.595Z,94267.91
2019-05-20T16:35:07.655Z,94272.95
2019-05-20T16:37:37.159Z,94275.55
2019-05-20T16:40:07.645Z,94280.03
2019-05-20T16:42:37.271Z,94277.30
2019-05-20T16:45:11.299Z,94271.70
2019-05-20T16:47:38.821Z,94271.61
2019-05-20T16:50:10.705Z,94274.99
2019-05-20T16:52:40.158Z,94279.12
2019-05-20T16:55:10.036Z,94278.00
2019-05-20T16:57:39.501Z,94282.50
2019-05-20T17:00:29.092Z,94279.61
2019-05-20T17:02:41.284Z,94282.81
2019-05-20T17:05:10.870Z,94285.14
2019-05-20T17:07:40.518Z,94282.74
2019-05-20T17:10:10.804Z,94278.21
2019-05-20T17:12:40.259Z,94281.42
2019-05-20T17:15:11.338Z,94277.79
2019-05-20T17:17:40.799Z,94279.42
2019-05-20T17:20:11.600Z,94290.33
2019-05-20T17:22:41.204Z,94286.97
2019-05-20T17:25:10.887Z,94286.94
2019-05-20T17:27:41.673Z,94290.88
2019-05-20T17:30:11.649Z,94296.91
2019-05-20T17:32:41.102Z,94306.91
2019-05-20T17:35:11.470Z,94303.16
2019-05-20T17:37:40.939Z,94301.59
2019-05-20T17:40:11.835Z,94306.61
2019-05-20T17:42:41.447Z,94298.91
2019-05-20T17:45:11.665Z,94294.63
2019-05-20T17:47:41.143Z,94295.67
2019-05-20T17:50:10.926Z,94298.03
2019-05-20T17:52:40.410Z,94295.88
2019-05-20T17:55:09.982Z,94294.16
2019-05-20T17:57:39.602Z,94292.53
2019-05-20T18:00:11.292Z,94303.03
2019-05-20T18:02:40.962Z,94300.84
2019-05-20T18:05:10.422Z,94308.00
2019-05-20T18:07:39.938Z,94305.28
2019-05-20T18:10:10.404Z,94303.12
2019-05-20T18:12:40.282Z,94307.87
2019-05-20T18:15:10.040Z,94299.95
2019-05-20T18:17:39.582Z,94310.92
2019-05-20T18:20:09.207Z,94302.98
2019-05-20T18:22:38.841Z,94300.34
2019-05-20T18:25:08.852Z,94307.80
2019-05-20T18:27:39.136Z,94313.05
2019-05-20T18:30:09.077Z,94307.02
2019-05-20T18:32:38.798Z,94322.41
2019-05-20T18:35:09.508Z,94328.50
2019-05-20T18:37:40.115Z,94321.09
2019-05-20T18:40:14.325Z,94325.02
2019-05-20T18:42:41.385Z,94336.23
2019-05-20T18:45:11.062Z,94336.56
2019-05-20T18:47:40.566Z,94326.47
2019-05-20T18:50:11.084Z,94341.36
2019-05-20T18:52:40.581Z,94341.94
2019-05-20T18:55:16.584Z,94342.30
2019-05-20T18:57:47.933Z,94344.13
2019-05-20T19:00:18.394Z,94344.70
2019-05-20T19:02:47.941Z,94357.45
2019-05-20T19:05:17.489Z,94350.56
2019-05-20T19:07:47.381Z,94348.16
2019-05-20T19:10:17.223Z,94338.86
2019-05-20T19:12:46.721Z,94341.92
2019-05-20T19:15:16.991Z,94336.52
2019-05-20T19:17:46.511Z,94343.22
2019-05-20T19:20:17.500Z,94351.16
2019-05-20T19:22:47.033Z,94361.59
2019-05-20T19:25:16.506Z,94358.95
2019-05-20T19:27:45.979Z,94358.13
2019-05-20T19:30:16.127Z,94357.12
2019-05-20T19:32:45.642Z,94363.44
2019-05-20T19:35:15.417Z,94367.41
2019-05-20T19:37:44.965Z,94364.98
2019-05-20T19:40:14.980Z,94362.49
2019-05-20T19:42:44.495Z,94363.70
2019-05-20T19:45:14.080Z,94360.70
2019-05-20T19:47:43.551Z,94359.50
2019-05-20T19:50:13.216Z,94369.37
2019-05-20T19:52:42.761Z,94369.37
2019-05-20T19:55:12.331Z,94365.17
2019-05-20T19:57:41.867Z,94356.17
2019-05-20T20:00:12.090Z,94363.78
2019-05-20T20:02:41.615Z,94358.83
2019-05-20T20:05:11.141Z,94356.18
2019-05-20T20:07:40.660Z,94360.37
2019-05-20T20:10:10.475Z,94375.09
2019-05-20T20:12:39.980Z,94367.69
2019-05-20T20:15:09.600Z,94373.34
2019-05-20T20:17:39.083Z,94371.89
2019-05-20T20:20:09.350Z,94375.99
2019-05-20T20:22:38.866Z,94393.58
2019-05-20T20:25:08.466Z,94382.33
2019-05-20T20:27:37.936Z,94375.19
2019-05-20T20:30:08.078Z,94375.05
2019-05-20T20:32:38.817Z,94389.09
2019-05-20T20:35:08.856Z,94400.91
2019-05-20T20:37:38.348Z,94413.45
2019-05-20T20:40:08.004Z,94398.78
2019-05-20T20:42:37.630Z,94406.25
2019-05-20T20:45:07.629Z,94414.16
2019-05-20T20:47:41.830Z,94409.69
2019-05-20T20:50:08.525Z,94408.70
2019-05-20T20:52:38.024Z,94422.44
2019-05-20T20:55:07.709Z,94423.04
2019-05-20T20:57:37.213Z,94411.05
2019-05-20T21:00:07.219Z,94417.06
2019-05-20T21:02:36.664Z,94419.64
2019-05-20T21:05:06.248Z,94424.11
2019-05-20T21:07:35.774Z,94426.72
2019-05-20T21:10:06.108Z,94417.94
2019-05-20T21:12:35.579Z,94416.84
2019-05-20T21:15:05.334Z,94424.69
2019-05-20T21:17:34.828Z,94434.50
2019-05-20T21:20:04.451Z,94432.59
2019-05-20T21:22:33.922Z,94440.80
2019-05-20T21:25:03.507Z,94444.01
2019-05-20T21:27:33.002Z,94431.76
2019-05-20T21:30:02.433Z,94432.56
2019-05-20T21:32:31.938Z,94422.02
2019-05-20T21:35:01.499Z,94417.88
2019-05-20T21:37:30.963Z,94410.96
2019-05-20T21:40:00.533Z,94424.52
2019-05-20T21:42:30.002Z,94431.23
2019-05-20T21:44:59.494Z,94425.86
2019-05-20T21:47:28.982Z,94438.56
2019-05-20T21:49:58.504Z,94425.44
2019-05-20T21:52:27.985Z,94415.19
2019-05-20T21:54:57.474Z,94433.53
2019-05-20T21:57:26.926Z,94439.29
2019-05-20T21:59:56.416Z,94438.84
2019-05-20T22:02:26.709Z,94431.50
2019-05-20T22:04:56.407Z,94439.17
2019-05-20T22:07:25.912Z,94439.58
2019-05-20T22:09:55.411Z,94433.00
2019-05-20T22:12:25.390Z,94442.51
2019-05-20T22:14:54.909Z,94444.05
2019-05-20T22:17:24.385Z,94432.77
2019-05-20T22:19:53.893Z,94433.06
2019-05-20T22:22:32.085Z,94443.09
2019-05-20T22:25:01.597Z,94445.95
2019-05-20T22:27:31.060Z,94451.25
2019-05-20T22:30:00.566Z,94448.22
2019-05-20T22:32:30.093Z,94450.85
2019-05-20T22:34:59.586Z,94439.52
2019-05-20T22:37:29.035Z,94435.63
2019-05-20T22:39:58.571Z,94441.27
2019-05-20T22:42:28.028Z,94442.63
2019-05-20T22:44:57.538Z,94440.69
2019-05-20T22:47:27.022Z,94449.61
2019-05-20T22:49:56.535Z,94452.13
2019-05-20T22:52:25.993Z,94455.61
2019-05-20T22:54:55.479Z,94455.61
2019-05-20T22:57:24.955Z,94453.97
2019-05-20T22:59:54.466Z,94464.42
2019-05-20T23:02:23.967Z,94449.36
2019-05-20T23:04:53.489Z,94454.73
2019-05-20T23:07:22.941Z,94460.31
2019-05-20T23:09:52.445Z,94460.97
2019-05-20T23:12:21.945Z,94463.38
2019-05-20T23:14:51.449Z,94467.84
2019-05-20T23:17:20.905Z,94476.47
2019-05-20T23:19:50.399Z,94468.13
2019-05-20T23:22:19.861Z,94470.40
2019-05-20T23:24:49.343Z,94458.78
2019-05-20T23:27:18.838Z,94458.84
2019-05-20T23:29:48.302Z,94464.70
2019-05-20T23:32:17.822Z,94462.35
2019-05-20T23:34:49.226Z,94454.04
2019-05-20T23:37:18.671Z,94457.74
2019-05-20T23:39:48.228Z,94451.92
2019-05-20T23:42:17.668Z,94457.60
2019-05-20T23:44:47.140Z,94446.16
2019-05-20T23:47:16.606Z,94446.67
2019-05-20T23:49:46.117Z,94451.02
2019-05-20T23:52:15.589Z,94457.90
2019-05-20T23:54:45.064Z,94441.73
2019-05-20T23:57:14.546Z,94441.59
2019-05-20T23:59:44.033Z,94439.91
